Walnut Hill, Illinois
Current Conditions -  °F | °C
As of 4:35 PM on Monday 26 Jan 2015 (Local Time) from KENL Reporting Station
Overcast Overcast  
Wind Chill: 32°   Ceiling: 5000
Heat Index: 32°   Visibility: 10mi
Dew Point: 27°   Wind: 3mph
Humidity: 82%   Direction: 180°S
Pressure: 29.93"   Gusts: NA
Location:  38.48°N, 89.04°W
Report Text: KENL 262235Z AUTO 18003KT 10SM SCT024 OVC050 00/M03 A2993 RMK AO2 T00011026
Loading
Personal Weather Stations






























Interactive Weather Map New forecast layout! Learn more

10-Day Weather Forecast

Advertisements
Track Severe Weather on mobile